createdAt,value
2024-02-08T06:30:49.935Z,-8.14
2024-02-08T06:33:27.058Z,-8.07
2024-02-08T06:35:58.587Z,-8.01
2024-02-08T06:38:53.337Z,-8.05
2024-02-08T06:41:47.132Z,-8.07
2024-02-08T06:44:33.468Z,-8.05
2024-02-08T06:47:19.985Z,-8.00
2024-02-08T06:50:06.282Z,-8.12
2024-02-08T06:52:53.034Z,-7.92
2024-02-08T06:55:39.270Z,-7.82
2024-02-08T06:58:25.486Z,-7.68
2024-02-08T07:01:11.745Z,-7.62
2024-02-08T07:03:58.095Z,-7.61
2024-02-08T07:06:44.101Z,-7.57
2024-02-08T07:09:30.370Z,-7.51
2024-02-08T07:12:16.553Z,-7.46
2024-02-08T07:15:02.526Z,-7.40
2024-02-08T07:17:48.749Z,-7.30
2024-02-08T07:20:34.855Z,-7.17
2024-02-08T07:23:21.033Z,-7.10
2024-02-08T07:26:07.292Z,-7.00
2024-02-08T07:28:53.540Z,-6.88
2024-02-08T07:31:39.536Z,-6.84
2024-02-08T07:34:26.092Z,-6.88
2024-02-08T07:37:12.382Z,-6.89
2024-02-08T07:39:48.153Z,-6.82
2024-02-08T07:42:21.917Z,-6.78
2024-02-08T07:44:56.574Z,-6.75
2024-02-08T07:47:26.835Z,-6.65
2024-02-08T07:50:06.290Z,-6.66
2024-02-08T07:52:57.232Z,-6.61
2024-02-08T07:55:31.920Z,-6.61
2024-02-08T07:57:59.713Z,-6.57
2024-02-08T08:00:44.103Z,-6.56
2024-02-08T08:03:17.707Z,-6.73
2024-02-08T08:05:47.050Z,-6.55
2024-02-08T08:08:27.589Z,-6.54
2024-02-08T08:11:07.294Z,-6.55
2024-02-08T08:13:51.955Z,-6.56
2024-02-08T08:16:33.069Z,-6.25
2024-02-08T08:19:26.131Z,-6.26
2024-02-08T08:21:59.914Z,-6.20
2024-02-08T08:24:28.344Z,-6.13
2024-02-08T08:27:08.488Z,-6.09
2024-02-08T08:29:46.033Z,-6.12
2024-02-08T08:32:32.631Z,-6.20
2024-02-08T08:35:19.846Z,-6.21
2024-02-08T08:37:50.406Z,-6.14
2024-02-08T08:40:47.541Z,-5.98
2024-02-08T08:43:24.545Z,-5.81
2024-02-08T08:46:01.291Z,-5.86
2024-02-08T08:48:35.654Z,-5.97
2024-02-08T08:51:13.787Z,-5.96
2024-02-08T08:53:45.884Z,-5.90
2024-02-08T08:56:14.254Z,-5.97
2024-02-08T08:58:43.387Z,-6.02
2024-02-08T09:01:23.995Z,-6.00
2024-02-08T09:04:24.324Z,-6.17
2024-02-08T09:06:52.137Z,-6.21
2024-02-08T09:09:29.708Z,-6.23
2024-02-08T09:12:00.591Z,-6.21
2024-02-08T09:14:32.502Z,-6.19
2024-02-08T09:17:23.477Z,-6.15
2024-02-08T09:19:49.571Z,-6.20
2024-02-08T09:22:19.761Z,-6.14
2024-02-08T09:24:48.144Z,-6.05
2024-02-08T09:27:20.906Z,-6.03
2024-02-08T09:29:58.245Z,-6.04
2024-02-08T09:32:45.034Z,-6.02
2024-02-08T09:35:17.998Z,-6.02
2024-02-08T09:37:50.145Z,-6.07
2024-02-08T09:40:22.213Z,-6.19
2024-02-08T09:42:58.054Z,-6.01
2024-02-08T09:45:34.037Z,-6.03
2024-02-08T09:48:08.323Z,-6.10
2024-02-08T09:50:38.174Z,-6.07
2024-02-08T09:53:19.946Z,-6.06
2024-02-08T09:55:58.312Z,-6.27
2024-02-08T09:58:42.931Z,-6.18
2024-02-08T10:01:32.199Z,-6.07
2024-02-08T10:04:07.821Z,-6.09
2024-02-08T10:06:47.894Z,-6.05
2024-02-08T10:09:35.339Z,-5.97
2024-02-08T10:12:12.996Z,-6.12
2024-02-08T10:14:44.120Z,-5.90
2024-02-08T10:17:26.535Z,-5.90
2024-02-08T10:20:15.263Z,-5.92
2024-02-08T10:22:58.658Z,-5.82
2024-02-08T10:25:45.537Z,-5.73
2024-02-08T10:28:27.481Z,-5.73
2024-02-08T10:31:14.255Z,-5.65
2024-02-08T10:33:49.565Z,-5.60
2024-02-08T10:36:22.232Z,-5.53
2024-02-08T10:38:58.537Z,-5.43
2024-02-08T10:41:40.455Z,-5.37
2024-02-08T10:44:19.754Z,-5.24
2024-02-08T10:46:50.803Z,-5.14
2024-02-08T10:49:24.808Z,-4.98
2024-02-08T10:52:02.576Z,-4.83
2024-02-08T10:54:55.520Z,-4.74
2024-02-08T10:57:41.693Z,-4.69
2024-02-08T11:00:30.348Z,-4.60
2024-02-08T11:03:10.258Z,-4.47
2024-02-08T11:05:57.720Z,-4.36
2024-02-08T11:08:26.436Z,-4.17
2024-02-08T11:11:00.645Z,-4.19
2024-02-08T11:13:39.494Z,-4.22
2024-02-08T11:16:22.998Z,-4.21
2024-02-08T11:18:54.833Z,-4.14
2024-02-08T11:21:44.304Z,-4.10
2024-02-08T11:24:30.349Z,-4.28
2024-02-08T11:27:04.271Z,-4.01
2024-02-08T11:29:48.676Z,-3.76
2024-02-08T11:32:18.933Z,-3.76
2024-02-08T11:34:47.849Z,-3.59
2024-02-08T11:37:17.805Z,-3.46
2024-02-08T11:39:49.045Z,-3.49
2024-02-08T11:42:19.163Z,-3.55
2024-02-08T11:44:47.852Z,-3.48
2024-02-08T11:47:24.784Z,-3.63
2024-02-08T11:50:02.823Z,-3.68
2024-02-08T11:52:33.554Z,-3.74
2024-02-08T11:55:11.924Z,-3.75
2024-02-08T11:57:44.678Z,-3.87
2024-02-08T12:00:19.876Z,-3.97
2024-02-08T12:03:03.176Z,-4.04
2024-02-08T12:05:32.048Z,-4.07
2024-02-08T12:08:10.883Z,-4.13
2024-02-08T12:10:40.321Z,-4.32
2024-02-08T12:13:15.583Z,-4.48
2024-02-08T12:15:57.917Z,-4.67
2024-02-08T12:18:29.646Z,-4.81
2024-02-08T12:21:01.797Z,-4.85
2024-02-08T12:23:33.957Z,-4.89
2024-02-08T12:26:05.777Z,-4.88
2024-02-08T12:28:36.721Z,-4.95
2024-02-08T12:31:05.270Z,-5.11
2024-02-08T12:33:34.258Z,-5.21
2024-02-08T12:36:02.168Z,-4.89
2024-02-08T12:38:32.359Z,-4.73
2024-02-08T12:41:07.979Z,-4.37
2024-02-08T12:43:36.237Z,-4.03
2024-02-08T12:46:03.806Z,-3.81
2024-02-08T12:48:31.525Z,-3.59
2024-02-08T12:51:05.111Z,-3.53
2024-02-08T12:53:32.829Z,-3.63
2024-02-08T12:56:07.800Z,-3.88
2024-02-08T12:58:35.566Z,-4.16
2024-02-08T13:01:07.196Z,-4.45
2024-02-08T13:03:38.668Z,-4.58
2024-02-08T13:06:13.320Z,-4.97
2024-02-08T13:08:47.195Z,-5.00
2024-02-08T13:11:23.928Z,-5.03
2024-02-08T13:13:51.502Z,-4.90
2024-02-08T13:16:19.069Z,-4.80
2024-02-08T13:18:56.448Z,-4.63
2024-02-08T13:21:26.609Z,-4.54
2024-02-08T13:23:57.491Z,-4.58
2024-02-08T13:26:33.147Z,-4.70
2024-02-08T13:29:05.601Z,-4.81
2024-02-08T13:31:33.369Z,-4.88
2024-02-08T13:34:03.168Z,-5.00
2024-02-08T13:36:30.935Z,-5.08
2024-02-08T13:38:58.569Z,-5.16
2024-02-08T13:41:26.224Z,-5.14
2024-02-08T13:43:54.430Z,-5.14
2024-02-08T13:46:23.582Z,-5.07
2024-02-08T13:48:51.227Z,-5.02
2024-02-08T13:51:18.913Z,-5.00
2024-02-08T13:53:46.994Z,-5.03
2024-02-08T13:56:15.267Z,-5.09
2024-02-08T13:58:43.222Z,-5.20
2024-02-08T14:01:13.247Z,-5.26
2024-02-08T14:03:41.275Z,-5.31
2024-02-08T14:06:11.470Z,-5.27
2024-02-08T14:08:44.685Z,-5.17
2024-02-08T14:11:18.164Z,-5.17
2024-02-08T14:13:46.170Z,-5.15
2024-02-08T14:16:17.935Z,-5.04
2024-02-08T14:18:55.526Z,-4.93
2024-02-08T14:21:27.814Z,-4.91
2024-02-08T14:24:02.996Z,-4.96
2024-02-08T14:26:38.974Z,-5.07
2024-02-08T14:29:13.460Z,-5.25
2024-02-08T14:31:43.741Z,-5.52
2024-02-08T14:34:16.027Z,-5.64
2024-02-08T14:36:52.759Z,-5.73
2024-02-08T14:39:31.165Z,-5.81
2024-02-08T14:42:19.352Z,-6.00
2024-02-08T14:44:55.393Z,-6.08
2024-02-08T14:47:23.750Z,-6.30
2024-02-08T14:50:01.885Z,-6.61
2024-02-08T14:52:46.480Z,-6.88
2024-02-08T14:55:27.508Z,-7.14
2024-02-08T14:58:01.197Z,-7.33
2024-02-08T15:00:32.381Z,-7.50
2024-02-08T15:03:12.567Z,-7.67
2024-02-08T15:05:50.063Z,-8.40
2024-02-08T15:08:24.426Z,-7.98
2024-02-08T15:11:10.196Z,-8.11
2024-02-08T15:13:56.088Z,-8.19
2024-02-08T15:16:24.084Z,-8.28
2024-02-08T15:18:55.640Z,-8.40
2024-02-08T15:21:27.295Z,-8.59
2024-02-08T15:24:09.672Z,-8.64
2024-02-08T15:26:38.905Z,-9.00
2024-02-08T15:29:06.793Z,-8.83
2024-02-08T15:31:40.385Z,-8.88
2024-02-08T15:34:14.232Z,-8.98
2024-02-08T15:37:00.897Z,-9.01
2024-02-08T15:39:48.755Z,-9.10
2024-02-08T15:42:21.576Z,-9.14
2024-02-08T15:44:54.544Z,-9.14
2024-02-08T15:47:22.823Z,-9.16
2024-02-08T15:49:56.177Z,-9.19
2024-02-08T15:52:27.753Z,-9.17
2024-02-08T15:55:00.648Z,-9.27
2024-02-08T15:57:34.619Z,-9.27
2024-02-08T16:00:22.909Z,-9.40
2024-02-08T16:02:53.384Z,-9.50
2024-02-08T16:05:23.650Z,-9.59
2024-02-08T16:07:59.075Z,-9.54
2024-02-08T16:10:33.560Z,-9.54
2024-02-08T16:13:07.659Z,-9.53
2024-02-08T16:15:57.788Z,-9.55
2024-02-08T16:18:31.222Z,-9.57
2024-02-08T16:21:00.798Z,-9.65
2024-02-08T16:23:29.179Z,-9.67
2024-02-08T16:26:23.502Z,-9.79
2024-02-08T16:28:52.438Z,-9.94
2024-02-08T16:31:20.219Z,-10.12
2024-02-08T16:33:49.988Z,-10.32
2024-02-08T16:36:28.865Z,-10.51
2024-02-08T16:39:16.894Z,-10.64
2024-02-08T16:41:50.442Z,-10.79
2024-02-08T16:44:19.103Z,-10.91
2024-02-08T16:46:59.461Z,-11.05
2024-02-08T16:49:32.130Z,-11.18
2024-02-08T16:52:05.981Z,-11.32
2024-02-08T16:54:37.167Z,-11.41
2024-02-08T16:57:08.783Z,-11.46
2024-02-08T16:59:49.546Z,-11.34
2024-02-08T17:02:26.219Z,-11.17
2024-02-08T17:05:11.594Z,-11.14
2024-02-08T17:07:45.761Z,-10.98
2024-02-08T17:10:35.534Z,-10.92
2024-02-08T17:13:38.795Z,-10.85
2024-02-08T17:16:37.425Z,-10.83
2024-02-08T17:19:25.273Z,-11.04
2024-02-08T17:21:52.936Z,-10.79
2024-02-08T17:24:43.535Z,-10.79
2024-02-08T17:27:27.676Z,-10.78
2024-02-08T17:30:05.751Z,-10.78
2024-02-08T17:32:34.711Z,-10.94
2024-02-08T17:35:02.637Z,-10.82
2024-02-08T17:37:39.740Z,-10.80
2024-02-08T17:40:20.873Z,-10.84
2024-02-08T17:42:51.371Z,-10.88
2024-02-08T17:45:21.602Z,-10.89
2024-02-08T17:47:49.815Z,-10.92
2024-02-08T17:50:31.238Z,-10.92
2024-02-08T17:53:01.280Z,-10.95
2024-02-08T17:55:37.904Z,-10.95
2024-02-08T17:58:14.331Z,-10.97
2024-02-08T18:00:43.704Z,-10.96
2024-02-08T18:03:16.877Z,-11.00
2024-02-08T18:05:49.221Z,-11.03
2024-02-08T18:08:18.412Z,-11.07
2024-02-08T18:10:47.822Z,-11.10
2024-02-08T18:13:18.914Z,-11.13
2024-02-08T18:15:52.381Z,-11.18
2024-02-08T18:18:24.747Z,-11.22
2024-02-08T18:20:59.829Z,-11.45
2024-02-08T18:23:34.610Z,-11.31
2024-02-08T18:26:05.535Z,-11.36
2024-02-08T18:28:35.692Z,-11.46
2024-02-08T18:31:07.803Z,-11.51
2024-02-08T18:33:36.668Z,-11.56
2024-02-08T18:36:06.716Z,-11.72
2024-02-08T18:38:35.150Z,-11.65
2024-02-08T18:41:03.219Z,-11.92
2024-02-08T18:43:32.519Z,-11.71
